PWSweather.com
Personal Weather Stations
Station Observations
STWO1
East Side, Stillwater, OK 74075

East SideStillwater, OK 74075

Lat: 36.1242949, Lon: -97.044042

Elevation: 942

Station Type: Davis VP2

http://stillwaterweather.com

Latest ConditionsUpdated 6:00:00 PM CST Tuesday, Jan 23, 2018
Currently Today's Max Today's Min Today's Average
Temperature 48.5°F9.2°C 53.6°F12.0°C 28.3°F-2.1°C 40.3°F4.6°C
Dew Point 20.0°F-6.7°C 24.8°F-4.0°C 18.8°F-7.3°C 21.6°F-5.8°C
Winds Calm Calm 9.2 mph NW14.8 kmh NW - 2.8 mph 4.5 kmh
Wind Gusts -- 16.1 mph25.9 kmh - -
Humidity 32% 71% 27% 50%
Pressure 30.31 in1026.4 mb 30.31 in1026.4 mb 30.07 in1018.3 mb -
Hour Temp Dew Point Humidity Winds Wind Gusts Pressure Precip Precip Rate Daily Precip Total
06:00 PM 48.5°F9.2°C 20.0°F-6.7°C 32% Calm Calm -- 30.31 in1026.4 mb - 0.00 in0.0 mm 0.00 in0.0 mm
05:50 PM 49.4°F9.7°C 19.3°F-7.1°C 30% Calm Calm -- 30.30 in1026.1 mb - 0.00 in0.0 mm 0.00 in0.0 mm
05:40 PM 50.1°F10.1°C 19.0°F-7.2°C 29% Calm Calm -- 30.30 in1026.1 mb - 0.00 in0.0 mm 0.00 in0.0 mm
05:30 PM 50.7°F10.4°C 19.5°F-6.9°C 29% 1.2 mph NW1.9 kmh NW 2.3 mph3.7 kmh 30.29 in1025.7 mb - 0.00 in0.0 mm 0.00 in0.0 mm
05:20 PM 51.1°F10.6°C 19.1°F-7.2°C 28% Calm Calm 1.2 mph1.9 kmh 30.29 in1025.7 mb - 0.00 in0.0 mm 0.00 in0.0 mm
05:10 PM 51.3°F10.7°C 19.3°F-7.1°C 28% 2.3 mph NW3.7 kmh NW 4.6 mph7.4 kmh 30.29 in1025.7 mb - 0.00 in0.0 mm 0.00 in0.0 mm
05:00 PM 51.8°F11.0°C 18.8°F-7.3°C 27% Calm Calm 1.2 mph1.9 kmh 30.29 in1025.7 mb - 0.00 in0.0 mm 0.00 in0.0 mm
04:50 PM 52.3°F11.3°C 19.3°F-7.1°C 27% 3.5 mph NNW5.6 kmh NNW 4.6 mph7.4 kmh 30.29 in1025.7 mb - 0.00 in0.0 mm 0.00 in0.0 mm
04:40 PM 52.5°F11.4°C 19.4°F-7.0°C 27% 2.3 mph NNW3.7 kmh NNW 3.5 mph5.6 kmh 30.29 in1025.7 mb - 0.00 in0.0 mm 0.00 in0.0 mm
04:30 PM 53.3°F11.8°C 20.2°F-6.6°C 27% 3.5 mph NW5.6 kmh NW 5.8 mph9.3 kmh 30.29 in1025.7 mb - 0.00 in0.0 mm 0.00 in0.0 mm
04:20 PM 53.2°F11.8°C 20.0°F-6.7°C 27% 1.2 mph NW1.9 kmh NW 3.5 mph5.6 kmh 30.29 in1025.7 mb - 0.00 in0.0 mm 0.00 in0.0 mm
04:10 PM 52.5°F11.4°C 19.4°F-7.0°C 27% 3.5 mph NNW5.6 kmh NNW 9.2 mph14.8 kmh 30.28 in1025.4 mb - 0.00 in0.0 mm 0.00 in0.0 mm
04:00 PM 52.8°F11.6°C 19.7°F-6.8°C 27% 3.5 mph NW5.6 kmh NW 8.1 mph13.0 kmh 30.28 in1025.4 mb - 0.00 in0.0 mm 0.00 in0.0 mm
03:50 PM 53.0°F11.7°C 20.7°F-6.3°C 28% 1.2 mph NW1.9 kmh NW 3.5 mph5.6 kmh 30.28 in1025.4 mb - 0.00 in0.0 mm 0.00 in0.0 mm
03:40 PM 53.6°F12.0°C 20.4°F-6.4°C 27% 3.5 mph NW5.6 kmh NW 4.6 mph7.4 kmh 30.28 in1025.4 mb - 0.00 in0.0 mm 0.00 in0.0 mm
03:30 PM 53.0°F11.7°C 20.7°F-6.3°C 28% 4.6 mph NW7.4 kmh NW 10.4 mph16.7 kmh 30.28 in1025.4 mb - 0.00 in0.0 mm 0.00 in0.0 mm
03:20 PM 52.7°F11.5°C 19.6°F-6.9°C 27% 4.6 mph NNW7.4 kmh NNW 10.4 mph16.7 kmh 30.28 in1025.4 mb - 0.00 in0.0 mm 0.00 in0.0 mm
03:10 PM 53.4°F11.9°C 21.0°F-6.1°C 28% 2.3 mph WNW3.7 kmh WNW 8.1 mph13.0 kmh 30.27 in1025.1 mb - 0.00 in0.0 mm 0.00 in0.0 mm
03:00 PM 52.1°F11.2°C 20.0°F-6.7°C 28% 4.6 mph NNW7.4 kmh NNW 8.1 mph13.0 kmh 30.27 in1025.1 mb - 0.00 in0.0 mm 0.00 in0.0 mm
02:50 PM 52.4°F11.3°C 20.2°F-6.6°C 28% 6.9 mph NW11.1 kmh NW 10.4 mph16.7 kmh 30.27 in1025.1 mb - 0.00 in0.0 mm 0.00 in0.0 mm
02:40 PM 52.4°F11.3°C 19.4°F-7.0°C 27% 5.8 mph NW9.3 kmh NW 9.2 mph14.8 kmh 30.27 in1025.1 mb - 0.00 in0.0 mm 0.00 in0.0 mm
02:30 PM 53.1°F11.7°C 20.8°F-6.2°C 28% 2.3 mph WNW3.7 kmh WNW 4.6 mph7.4 kmh 30.27 in1025.1 mb - 0.00 in0.0 mm 0.00 in0.0 mm
02:20 PM 52.8°F11.6°C 21.4°F-5.9°C 29% 3.5 mph W5.6 kmh W 5.8 mph9.3 kmh 30.27 in1025.1 mb - 0.00 in0.0 mm 0.00 in0.0 mm
02:10 PM 52.6°F11.4°C 21.2°F-6.0°C 29% 4.6 mph WSW7.4 kmh WSW 11.5 mph18.5 kmh 30.26 in1024.7 mb - 0.00 in0.0 mm 0.00 in0.0 mm
02:00 PM 51.7°F10.9°C 22.0°F-5.6°C 31% 2.3 mph NW3.7 kmh NW 5.8 mph9.3 kmh 30.26 in1024.7 mb - 0.00 in0.0 mm 0.00 in0.0 mm
01:50 PM 51.6°F10.9°C 22.7°F-5.2°C 32% 2.3 mph W3.7 kmh W 6.9 mph11.1 kmh 30.26 in1024.7 mb - 0.00 in0.0 mm 0.00 in0.0 mm
01:40 PM 51.2°F10.7°C 22.3°F-5.4°C 32% 5.8 mph WSW9.3 kmh WSW 6.9 mph11.1 kmh 30.26 in1024.7 mb - 0.00 in0.0 mm 0.00 in0.0 mm
01:30 PM 51.1°F10.6°C 22.9°F-5.1°C 33% 1.2 mph WSW1.9 kmh WSW 5.8 mph9.3 kmh 30.27 in1025.1 mb - 0.00 in0.0 mm 0.00 in0.0 mm
01:20 PM 50.0°F10.0°C 22.0°F-5.6°C 33% 4.6 mph NW7.4 kmh NW 4.6 mph7.4 kmh 30.27 in1025.1 mb - 0.00 in0.0 mm 0.00 in0.0 mm
01:10 PM 49.2°F9.6°C 22.0°F-5.6°C 34% 2.3 mph NW3.7 kmh NW 3.5 mph5.6 kmh 30.27 in1025.1 mb - 0.00 in0.0 mm 0.00 in0.0 mm
01:00 PM 49.4°F9.7°C 23.5°F-4.7°C 36% 4.6 mph W7.4 kmh W 8.1 mph13.0 kmh 30.28 in1025.4 mb - 0.00 in0.0 mm 0.00 in0.0 mm
12:50 PM 48.6°F9.2°C 22.8°F-5.1°C 36% 4.6 mph NW7.4 kmh NW 5.8 mph9.3 kmh 30.28 in1025.4 mb - 0.00 in0.0 mm 0.00 in0.0 mm
12:40 PM 47.8°F8.8°C 23.4°F-4.8°C 38% 3.5 mph NW5.6 kmh NW 5.8 mph9.3 kmh 30.28 in1025.4 mb - 0.00 in0.0 mm 0.00 in0.0 mm
12:30 PM 47.6°F8.7°C 23.8°F-4.6°C 39% 2.3 mph NW3.7 kmh NW 3.5 mph5.6 kmh 30.29 in1025.7 mb - 0.00 in0.0 mm 0.00 in0.0 mm
12:20 PM 47.0°F8.3°C 23.9°F-4.5°C 40% 2.3 mph W3.7 kmh W 5.8 mph9.3 kmh 30.29 in1025.7 mb - 0.00 in0.0 mm 0.00 in0.0 mm
12:10 PM 47.0°F8.3°C 23.9°F-4.5°C 40% 2.3 mph NNW3.7 kmh NNW 4.6 mph7.4 kmh 30.29 in1025.7 mb - 0.00 in0.0 mm 0.00 in0.0 mm
12:00 PM 45.8°F7.7°C 24.0°F-4.4°C 42% 2.3 mph NNW3.7 kmh NNW 4.6 mph7.4 kmh 30.30 in1026.1 mb - 0.00 in0.0 mm 0.00 in0.0 mm
11:50 AM 44.7°F7.1°C 23.6°F-4.7°C 43% 3.5 mph NW5.6 kmh NW 5.8 mph9.3 kmh 30.30 in1026.1 mb - 0.00 in0.0 mm 0.00 in0.0 mm
11:40 AM 44.7°F7.1°C 24.1°F-4.4°C 44% 2.3 mph NNW3.7 kmh NNW 3.5 mph5.6 kmh 30.30 in1026.1 mb - 0.00 in0.0 mm 0.00 in0.0 mm
11:30 AM 43.3°F6.3°C 24.4°F-4.2°C 47% 3.5 mph NW5.6 kmh NW 8.1 mph13.0 kmh 30.31 in1026.4 mb - 0.00 in0.0 mm 0.00 in0.0 mm
11:20 AM 43.2°F6.2°C 23.8°F-4.6°C 46% 5.8 mph NW9.3 kmh NW 10.4 mph16.7 kmh 30.31 in1026.4 mb - 0.00 in0.0 mm 0.00 in0.0 mm
11:10 AM 42.3°F5.7°C 24.0°F-4.4°C 48% 4.6 mph NW7.4 kmh NW 8.1 mph13.0 kmh 30.31 in1026.4 mb - 0.00 in0.0 mm 0.00 in0.0 mm
11:00 AM 41.7°F5.4°C 23.9°F-4.5°C 49% 4.6 mph NW7.4 kmh NW 8.1 mph13.0 kmh 30.31 in1026.4 mb - 0.00 in0.0 mm 0.00 in0.0 mm
10:50 AM 41.3°F5.2°C 23.6°F-4.7°C 49% 4.6 mph NNW7.4 kmh NNW 8.1 mph13.0 kmh 30.31 in1026.4 mb - 0.00 in0.0 mm 0.00 in0.0 mm
10:40 AM 40.7°F4.8°C 24.5°F-4.2°C 52% 5.8 mph N9.3 kmh N 11.5 mph18.5 kmh 30.31 in1026.4 mb - 0.00 in0.0 mm 0.00 in0.0 mm
10:30 AM 40.1°F4.5°C 24.8°F-4.0°C 54% 3.5 mph NW5.6 kmh NW 10.4 mph16.7 kmh 30.30 in1026.1 mb - 0.00 in0.0 mm 0.00 in0.0 mm
10:20 AM 39.6°F4.2°C 23.8°F-4.6°C 53% 6.9 mph N11.1 kmh N 10.4 mph16.7 kmh 30.30 in1026.1 mb - 0.00 in0.0 mm 0.00 in0.0 mm
10:10 AM 39.0°F3.9°C 24.2°F-4.3°C 55% 5.8 mph N9.3 kmh N 10.4 mph16.7 kmh 30.29 in1025.7 mb - 0.00 in0.0 mm 0.00 in0.0 mm
10:00 AM 38.2°F3.4°C 24.3°F-4.3°C 57% 3.5 mph NW5.6 kmh NW 9.2 mph14.8 kmh 30.29 in1025.7 mb - 0.00 in0.0 mm 0.00 in0.0 mm
09:50 AM 37.5°F3.1°C 23.6°F-4.7°C 57% 3.5 mph NNW5.6 kmh NNW 3.5 mph5.6 kmh 30.29 in1025.7 mb - 0.00 in0.0 mm 0.00 in0.0 mm
09:40 AM 36.8°F2.7°C 23.4°F-4.8°C 58% 5.8 mph NNW9.3 kmh NNW 9.2 mph14.8 kmh 30.29 in1025.7 mb - 0.00 in0.0 mm 0.00 in0.0 mm
09:30 AM 36.5°F2.5°C 23.1°F-4.9°C 58% 5.8 mph NW9.3 kmh NW 8.1 mph13.0 kmh 30.29 in1025.7 mb - 0.00 in0.0 mm 0.00 in0.0 mm
09:20 AM 35.9°F2.2°C 23.0°F-5.0°C 59% 3.5 mph NW5.6 kmh NW 9.2 mph14.8 kmh 30.28 in1025.4 mb - 0.00 in0.0 mm 0.00 in0.0 mm
09:10 AM 35.2°F1.8°C 23.1°F-4.9°C 61% 2.3 mph NW3.7 kmh NW 4.6 mph7.4 kmh 30.28 in1025.4 mb - 0.00 in0.0 mm 0.00 in0.0 mm
09:00 AM 33.8°F1.0°C 22.9°F-5.1°C 64% 1.2 mph NW1.9 kmh NW 3.5 mph5.6 kmh 30.27 in1025.1 mb - 0.00 in0.0 mm 0.00 in0.0 mm
08:50 AM 32.1°F0.1°C 22.4°F-5.3°C 67% 2.3 mph NW3.7 kmh NW 4.6 mph7.4 kmh 30.27 in1025.1 mb - 0.00 in0.0 mm 0.00 in0.0 mm
08:40 AM 31.1°F-0.5°C 21.8°F-5.7°C 68% 2.3 mph NW3.7 kmh NW 3.5 mph5.6 kmh 30.26 in1024.7 mb - 0.00 in0.0 mm 0.00 in0.0 mm
08:30 AM 30.3°F-0.9°C 21.7°F-5.7°C 70% Calm Calm 3.5 mph5.6 kmh 30.26 in1024.7 mb - 0.00 in0.0 mm 0.00 in0.0 mm
08:20 AM 29.4°F-1.4°C 21.2°F-6.0°C 71% 1.2 mph WNW1.9 kmh WNW 2.3 mph3.7 kmh 30.26 in1024.7 mb - 0.00 in0.0 mm 0.00 in0.0 mm
08:10 AM 28.8°F-1.8°C 20.6°F-6.3°C 71% 1.2 mph NW1.9 kmh NW 3.5 mph5.6 kmh 30.26 in1024.7 mb - 0.00 in0.0 mm 0.00 in0.0 mm
08:00 AM 28.5°F-1.9°C 20.3°F-6.5°C 71% Calm Calm 2.3 mph3.7 kmh 30.25 in1024.4 mb - 0.00 in0.0 mm 0.00 in0.0 mm
07:50 AM 28.4°F-2.0°C 20.2°F-6.6°C 71% Calm Calm 3.5 mph5.6 kmh 30.25 in1024.4 mb - 0.00 in0.0 mm 0.00 in0.0 mm
07:40 AM 28.3°F-2.1°C 19.8°F-6.8°C 70% Calm Calm -- 30.24 in1024.0 mb - 0.00 in0.0 mm 0.00 in0.0 mm
07:30 AM 28.5°F-1.9°C 20.0°F-6.7°C 70% Calm Calm 2.3 mph3.7 kmh 30.25 in1024.4 mb - 0.00 in0.0 mm 0.00 in0.0 mm
07:20 AM 28.7°F-1.8°C 20.2°F-6.6°C 70% Calm Calm -- 30.24 in1024.0 mb - 0.00 in0.0 mm 0.00 in0.0 mm
07:10 AM 28.8°F-1.8°C 20.2°F-6.6°C 70% Calm Calm 2.3 mph3.7 kmh 30.23 in1023.7 mb - 0.00 in0.0 mm 0.00 in0.0 mm
07:00 AM 28.8°F-1.8°C 20.2°F-6.6°C 70% 2.3 mph W3.7 kmh W 8.1 mph13.0 kmh 30.23 in1023.7 mb - 0.00 in0.0 mm 0.00 in0.0 mm
06:50 AM 28.9°F-1.7°C 20.0°F-6.7°C 69% Calm Calm -- 30.23 in1023.7 mb - 0.00 in0.0 mm 0.00 in0.0 mm
06:40 AM 29.1°F-1.6°C 19.8°F-6.8°C 68% Calm Calm -- 30.23 in1023.7 mb - 0.00 in0.0 mm 0.00 in0.0 mm
06:30 AM 29.4°F-1.4°C 20.5°F-6.4°C 69% 1.2 mph WNW1.9 kmh WNW 3.5 mph5.6 kmh 30.22 in1023.4 mb - 0.00 in0.0 mm 0.00 in0.0 mm
06:20 AM 29.5°F-1.4°C 20.2°F-6.6°C 68% 1.2 mph WNW1.9 kmh WNW 2.3 mph3.7 kmh 30.22 in1023.4 mb - 0.00 in0.0 mm 0.00 in0.0 mm
06:10 AM 29.8°F-1.2°C 20.2°F-6.6°C 67% Calm Calm 2.3 mph3.7 kmh 30.21 in1023.0 mb - 0.00 in0.0 mm 0.00 in0.0 mm
06:00 AM 30.1°F-1.1°C 20.5°F-6.4°C 67% 1.2 mph WNW1.9 kmh WNW 2.3 mph3.7 kmh 30.21 in1023.0 mb - 0.00 in0.0 mm 0.00 in0.0 mm
05:50 AM 30.3°F-0.9°C 20.6°F-6.3°C 67% 1.2 mph WNW1.9 kmh WNW 2.3 mph3.7 kmh 30.20 in1022.7 mb - 0.00 in0.0 mm 0.00 in0.0 mm
05:40 AM 30.5°F-0.8°C 20.5°F-6.4°C 66% 3.5 mph NW5.6 kmh NW 5.8 mph9.3 kmh 30.20 in1022.7 mb - 0.00 in0.0 mm 0.00 in0.0 mm
05:30 AM 30.8°F-0.7°C 20.8°F-6.2°C 66% 2.3 mph WNW3.7 kmh WNW 4.6 mph7.4 kmh 30.19 in1022.4 mb - 0.00 in0.0 mm 0.00 in0.0 mm
05:20 AM 31.2°F-0.4°C 20.8°F-6.2°C 65% Calm Calm 2.3 mph3.7 kmh 30.18 in1022.0 mb - 0.00 in0.0 mm 0.00 in0.0 mm
05:10 AM 31.5°F-0.3°C 20.7°F-6.3°C 64% 1.2 mph NNW1.9 kmh NNW 3.5 mph5.6 kmh 30.18 in1022.0 mb - 0.00 in0.0 mm 0.00 in0.0 mm
05:00 AM 31.9°F-0.1°C 20.7°F-6.3°C 63% 1.2 mph NW1.9 kmh NW 3.5 mph5.6 kmh 30.17 in1021.7 mb - 0.00 in0.0 mm 0.00 in0.0 mm
04:50 AM 32.5°F0.3°C 20.9°F-6.2°C 62% Calm Calm 3.5 mph5.6 kmh 30.16 in1021.3 mb - 0.00 in0.0 mm 0.00 in0.0 mm
04:40 AM 32.9°F0.5°C 21.3°F-5.9°C 62% 2.3 mph WNW3.7 kmh WNW 6.9 mph11.1 kmh 30.16 in1021.3 mb - 0.00 in0.0 mm 0.00 in0.0 mm
04:30 AM 33.2°F0.7°C 21.6°F-5.8°C 62% 2.3 mph NW3.7 kmh NW 5.8 mph9.3 kmh 30.15 in1021.0 mb - 0.00 in0.0 mm 0.00 in0.0 mm
04:20 AM 33.2°F0.7°C 21.6°F-5.8°C 62% 3.5 mph NW5.6 kmh NW 8.1 mph13.0 kmh 30.15 in1021.0 mb - 0.00 in0.0 mm 0.00 in0.0 mm
04:10 AM 33.3°F0.7°C 21.7°F-5.7°C 62% 2.3 mph NNW3.7 kmh NNW 4.6 mph7.4 kmh 30.15 in1021.0 mb - 0.00 in0.0 mm 0.00 in0.0 mm
04:00 AM 33.1°F0.6°C 21.5°F-5.8°C 62% 3.5 mph NNW5.6 kmh NNW 3.5 mph5.6 kmh 30.15 in1021.0 mb - 0.00 in0.0 mm 0.00 in0.0 mm
03:50 AM 33.1°F0.6°C 21.5°F-5.8°C 62% 2.3 mph WNW3.7 kmh WNW 2.3 mph3.7 kmh 30.15 in1021.0 mb - 0.00 in0.0 mm 0.00 in0.0 mm
03:40 AM 33.0°F0.6°C 21.4°F-5.9°C 62% 1.2 mph NW1.9 kmh NW 2.3 mph3.7 kmh 30.15 in1021.0 mb - 0.00 in0.0 mm 0.00 in0.0 mm
03:30 AM 33.3°F0.7°C 21.3°F-5.9°C 61% 2.3 mph NW3.7 kmh NW 3.5 mph5.6 kmh 30.15 in1021.0 mb - 0.00 in0.0 mm 0.00 in0.0 mm
03:20 AM 33.9°F1.1°C 21.4°F-5.9°C 60% Calm Calm 1.2 mph1.9 kmh 30.15 in1021.0 mb - 0.00 in0.0 mm 0.00 in0.0 mm
03:10 AM 34.2°F1.2°C 21.4°F-5.9°C 59% 4.6 mph NW7.4 kmh NW 11.5 mph18.5 kmh 30.14 in1020.7 mb - 0.00 in0.0 mm 0.00 in0.0 mm
03:00 AM 34.4°F1.3°C 21.5°F-5.8°C 59% 4.6 mph NW7.4 kmh NW 11.5 mph18.5 kmh 30.14 in1020.7 mb - 0.00 in0.0 mm 0.00 in0.0 mm
02:50 AM 34.7°F1.5°C 21.8°F-5.7°C 59% 3.5 mph NW5.6 kmh NW 5.8 mph9.3 kmh 30.14 in1020.7 mb - 0.00 in0.0 mm 0.00 in0.0 mm
02:40 AM 34.9°F1.6°C 21.6°F-5.8°C 58% 2.3 mph NW3.7 kmh NW 3.5 mph5.6 kmh 30.14 in1020.7 mb - 0.00 in0.0 mm 0.00 in0.0 mm
02:30 AM 35.1°F1.7°C 21.8°F-5.7°C 58% 2.3 mph W3.7 kmh W 5.8 mph9.3 kmh 30.13 in1020.3 mb - 0.00 in0.0 mm 0.00 in0.0 mm
02:20 AM 35.5°F1.9°C 21.7°F-5.7°C 57% 1.2 mph NW1.9 kmh NW 1.2 mph1.9 kmh 30.13 in1020.3 mb - 0.00 in0.0 mm 0.00 in0.0 mm
02:10 AM 35.9°F2.2°C 21.7°F-5.7°C 56% 1.2 mph WNW1.9 kmh WNW 2.3 mph3.7 kmh 30.13 in1020.3 mb - 0.00 in0.0 mm 0.00 in0.0 mm
02:00 AM 36.5°F2.5°C 21.8°F-5.7°C 55% 1.2 mph W1.9 kmh W 2.3 mph3.7 kmh 30.12 in1020.0 mb - 0.00 in0.0 mm 0.00 in0.0 mm
01:50 AM 37.0°F2.8°C 21.8°F-5.7°C 54% 3.5 mph NW5.6 kmh NW 5.8 mph9.3 kmh 30.11 in1019.6 mb - 0.00 in0.0 mm 0.00 in0.0 mm
01:40 AM 37.2°F2.9°C 22.1°F-5.5°C 54% 4.6 mph NW7.4 kmh NW 10.4 mph16.7 kmh 30.11 in1019.6 mb - 0.00 in0.0 mm 0.00 in0.0 mm
01:30 AM 37.5°F3.1°C 21.9°F-5.6°C 53% 6.9 mph NW11.1 kmh NW 13.8 mph22.2 kmh 30.10 in1019.3 mb - 0.00 in0.0 mm 0.00 in0.0 mm
01:20 AM 37.8°F3.2°C 22.2°F-5.4°C 53% 2.3 mph NNW3.7 kmh NNW 8.1 mph13.0 kmh 30.09 in1019.0 mb - 0.00 in0.0 mm 0.00 in0.0 mm
01:10 AM 38.1°F3.4°C 22.0°F-5.6°C 52% 4.6 mph NW7.4 kmh NW 11.5 mph18.5 kmh 30.09 in1019.0 mb - 0.00 in0.0 mm 0.00 in0.0 mm
01:00 AM 38.5°F3.6°C 22.4°F-5.3°C 52% 3.5 mph NW5.6 kmh NW 6.9 mph11.1 kmh 30.09 in1019.0 mb - 0.00 in0.0 mm 0.00 in0.0 mm
12:50 AM 38.8°F3.8°C 22.6°F-5.2°C 52% 9.2 mph NW14.8 kmh NW 15.0 mph24.1 kmh 30.08 in1018.6 mb - 0.00 in0.0 mm 0.00 in0.0 mm
12:40 AM 38.9°F3.8°C 22.3°F-5.4°C 51% 6.9 mph NW11.1 kmh NW 11.5 mph18.5 kmh 30.08 in1018.6 mb - 0.00 in0.0 mm 0.00 in0.0 mm
12:30 AM 39.0°F3.9°C 22.4°F-5.3°C 51% 4.6 mph WNW7.4 kmh WNW 8.1 mph13.0 kmh 30.07 in1018.3 mb - 0.00 in0.0 mm 0.00 in0.0 mm
12:20 AM 39.3°F4.1°C 22.7°F-5.2°C 51% 5.8 mph NW9.3 kmh NW 10.4 mph16.7 kmh 30.08 in1018.6 mb - 0.00 in0.0 mm 0.00 in0.0 mm
12:10 AM 39.3°F4.1°C 22.7°F-5.2°C 51% 4.6 mph NW7.4 kmh NW 13.8 mph22.2 kmh 30.07 in1018.3 mb - 0.00 in0.0 mm 0.00 in0.0 mm
12:00 AM 39.6°F4.2°C 22.4°F-5.3°C 50% 4.6 mph NW7.4 kmh NW 16.1 mph25.9 kmh 30.07 in1018.3 mb - 0.00 in0.0 mm 0.00 in0.0 mm